createdAt,value
2022-10-31T00:01:21.703Z,100.00
2022-10-31T00:03:49.564Z,100.00
2022-10-31T00:06:19.086Z,100.00
2022-10-31T00:08:48.493Z,100.00
2022-10-31T00:11:16.240Z,100.00
2022-10-31T00:13:43.874Z,100.00
2022-10-31T00:16:18.233Z,100.00
2022-10-31T00:18:46.068Z,100.00
2022-10-31T00:21:13.699Z,100.00
2022-10-31T00:23:41.380Z,100.00
2022-10-31T00:26:10.399Z,100.00
2022-10-31T00:28:38.080Z,100.00
2022-10-31T00:31:07.595Z,100.00
2022-10-31T00:33:35.879Z,100.00
2022-10-31T00:36:03.516Z,100.00
2022-10-31T00:38:31.160Z,100.00
2022-10-31T00:40:58.810Z,100.00
2022-10-31T00:43:27.798Z,100.00
2022-10-31T00:45:55.485Z,100.00
2022-10-31T00:48:23.111Z,100.00
2022-10-31T00:50:50.768Z,100.00
2022-10-31T00:53:18.428Z,100.00
2022-10-31T00:55:46.092Z,100.00
2022-10-31T01:00:46.709Z,100.00
2022-10-31T01:03:17.167Z,100.00
2022-10-31T01:05:44.821Z,100.00
2022-10-31T01:08:12.458Z,100.00
2022-10-31T01:10:40.081Z,100.00
2022-10-31T01:13:07.724Z,100.00
2022-10-31T01:15:35.347Z,100.00
2022-10-31T01:18:04.488Z,100.00
2022-10-31T01:20:32.145Z,100.00
2022-10-31T01:22:59.764Z,100.00
2022-10-31T01:25:27.526Z,100.00
2022-10-31T01:27:55.155Z,100.00
2022-10-31T01:30:22.808Z,100.00
2022-10-31T01:32:50.523Z,100.00
2022-10-31T01:35:19.535Z,100.00
2022-10-31T01:37:47.174Z,100.00
2022-10-31T01:40:14.824Z,100.00
2022-10-31T01:42:42.457Z,100.00
2022-10-31T01:45:12.515Z,100.00
2022-10-31T01:47:43.759Z,100.00
2022-10-31T01:50:21.637Z,100.00
2022-10-31T01:52:51.597Z,100.00
2022-10-31T01:55:25.219Z,100.00
2022-10-31T01:58:00.631Z,100.00
2022-10-31T02:00:28.533Z,100.00
2022-10-31T02:02:57.104Z,100.00
2022-10-31T02:05:28.536Z,100.00
2022-10-31T02:07:57.856Z,100.00
2022-10-31T02:10:26.001Z,100.00
2022-10-31T02:12:55.242Z,100.00
2022-10-31T02:15:22.885Z,100.00
2022-10-31T02:17:50.748Z,100.00
2022-10-31T02:20:20.483Z,100.00
2022-10-31T02:23:09.087Z,100.00
2022-10-31T02:25:53.395Z,100.00
2022-10-31T02:28:47.120Z,100.00
2022-10-31T02:31:23.895Z,100.00
2022-10-31T02:33:54.212Z,100.00
2022-10-31T02:36:27.957Z,100.00
2022-10-31T02:39:03.417Z,100.00
2022-10-31T02:41:35.299Z,100.00
2022-10-31T02:44:08.290Z,100.00
2022-10-31T02:46:41.286Z,100.00
2022-10-31T02:49:13.531Z,100.00
2022-10-31T02:51:41.598Z,100.00
2022-10-31T02:54:23.449Z,100.00
2022-10-31T02:56:52.838Z,100.00
2022-10-31T02:59:20.971Z,100.00
2022-10-31T03:02:20.046Z,100.00
2022-10-31T03:05:14.193Z,100.00
2022-10-31T03:07:44.788Z,100.00
2022-10-31T03:10:19.748Z,100.00
2022-10-31T03:12:52.927Z,100.00
2022-10-31T03:15:24.720Z,100.00
2022-10-31T03:17:57.410Z,100.00
2022-10-31T03:20:29.652Z,100.00
2022-10-31T03:22:57.487Z,100.00
2022-10-31T03:25:25.640Z,100.00
2022-10-31T03:27:53.668Z,100.00
2022-10-31T03:30:21.535Z,100.00
2022-10-31T03:32:52.034Z,100.00
2022-10-31T03:35:23.276Z,100.00
2022-10-31T03:37:53.721Z,100.00
2022-10-31T03:40:23.454Z,100.00
2022-10-31T03:42:55.671Z,100.00
2022-10-31T03:45:25.919Z,100.00
2022-10-31T03:47:54.706Z,100.00
2022-10-31T03:50:26.003Z,100.00
2022-10-31T03:52:57.539Z,100.00
2022-10-31T03:55:28.735Z,100.00
2022-10-31T03:58:00.148Z,100.00
2022-10-31T04:00:28.416Z,100.00
2022-10-31T04:02:58.353Z,100.00
2022-10-31T04:05:27.595Z,100.00
2022-10-31T04:07:57.210Z,100.00
2022-10-31T04:10:30.208Z,100.00
2022-10-31T04:13:03.989Z,100.00
2022-10-31T04:15:33.307Z,100.00
2022-10-31T04:18:01.740Z,100.00
2022-10-31T04:20:36.006Z,100.00
2022-10-31T04:23:04.700Z,100.00
2022-10-31T04:25:32.341Z,100.00
2022-10-31T04:28:00.307Z,100.00
2022-10-31T04:30:28.215Z,100.00
2022-10-31T04:32:55.845Z,100.00
2022-10-31T04:35:23.495Z,100.00
2022-10-31T04:37:52.489Z,100.00
2022-10-31T04:40:20.114Z,100.00
2022-10-31T04:42:47.777Z,100.00
2022-10-31T04:45:18.471Z,100.00
2022-10-31T04:47:48.789Z,100.00
2022-10-31T04:50:16.615Z,100.00
2022-10-31T04:52:45.056Z,100.00
2022-10-31T04:55:15.066Z,100.00
2022-10-31T04:57:43.768Z,100.00
2022-10-31T05:00:12.905Z,100.00
2022-10-31T05:02:45.520Z,100.00
2022-10-31T05:05:13.754Z,100.00
2022-10-31T05:07:42.517Z,100.00
2022-10-31T05:10:11.821Z,100.00
2022-10-31T05:12:42.586Z,100.00
2022-10-31T05:15:10.335Z,100.00
2022-10-31T05:17:37.800Z,100.00
2022-10-31T05:20:05.646Z,100.00
2022-10-31T05:22:33.107Z,100.00
2022-10-31T05:25:00.542Z,100.00
2022-10-31T05:27:28.016Z,100.00
2022-10-31T05:29:56.839Z,100.00
2022-10-31T05:32:24.398Z,100.00
2022-10-31T05:34:51.856Z,100.00
2022-10-31T05:37:19.331Z,100.00
2022-10-31T05:39:46.774Z,100.00
2022-10-31T05:42:14.235Z,100.00
2022-10-31T05:44:41.700Z,100.00
2022-10-31T05:47:10.641Z,100.00
2022-10-31T05:49:38.086Z,100.00
2022-10-31T05:52:05.802Z,100.00
2022-10-31T05:54:33.414Z,100.00
2022-10-31T05:57:00.920Z,100.00
2022-10-31T05:59:28.404Z,100.00
2022-10-31T06:01:55.977Z,100.00
2022-10-31T06:04:24.847Z,100.00
2022-10-31T06:06:52.399Z,100.00
2022-10-31T06:09:19.849Z,100.00
2022-10-31T06:11:47.471Z,100.00
2022-10-31T06:14:14.968Z,100.00
2022-10-31T06:16:42.452Z,100.00
2022-10-31T06:19:09.918Z,100.00
2022-10-31T06:21:38.762Z,100.00
2022-10-31T06:24:06.639Z,100.00
2022-10-31T06:26:34.111Z,100.00
2022-10-31T06:29:04.039Z,100.00
2022-10-31T06:31:32.727Z,100.00
2022-10-31T06:34:00.191Z,100.00
2022-10-31T06:39:01.948Z,100.00
2022-10-31T06:41:29.477Z,100.00
2022-10-31T06:43:56.963Z,100.00
2022-10-31T06:46:24.444Z,100.00
2022-10-31T06:48:51.908Z,100.00
2022-10-31T06:51:19.380Z,100.00
2022-10-31T06:53:46.844Z,100.00
2022-10-31T06:56:15.679Z,100.00
2022-10-31T06:58:43.134Z,100.00
2022-10-31T07:01:10.698Z,100.00
2022-10-31T07:03:38.211Z,100.00
2022-10-31T07:06:05.831Z,100.00
2022-10-31T07:08:33.307Z,100.00
2022-10-31T07:11:00.769Z,100.00
2022-10-31T07:13:29.588Z,100.00
2022-10-31T07:15:57.527Z,100.00
2022-10-31T07:18:24.956Z,100.00
2022-10-31T07:20:53.387Z,100.00
2022-10-31T07:23:20.955Z,100.00
2022-10-31T07:25:48.420Z,100.00
2022-10-31T07:28:15.888Z,100.00
2022-10-31T07:30:44.716Z,100.00
2022-10-31T07:33:12.170Z,100.00
2022-10-31T07:35:39.631Z,100.00
2022-10-31T07:38:10.523Z,100.00
2022-10-31T07:40:38.133Z,100.00
2022-10-31T07:43:08.858Z,100.00
2022-10-31T07:45:40.622Z,100.00
2022-10-31T07:48:09.436Z,100.00
2022-10-31T07:50:36.968Z,100.00
2022-10-31T07:53:05.210Z,100.00
2022-10-31T07:55:32.918Z,100.00
2022-10-31T07:58:00.945Z,100.00
2022-10-31T08:00:28.702Z,100.00
2022-10-31T08:03:00.287Z,100.00
2022-10-31T08:05:29.666Z,100.00
2022-10-31T08:07:57.477Z,100.00
2022-10-31T08:10:25.286Z,100.00
2022-10-31T08:12:57.189Z,100.00
2022-10-31T08:15:24.722Z,100.00
2022-10-31T08:17:52.222Z,100.00
2022-10-31T08:20:19.803Z,100.00
2022-10-31T08:22:55.925Z,100.00
2022-10-31T08:25:23.407Z,100.00
2022-10-31T08:27:51.512Z,100.00
2022-10-31T08:30:19.110Z,100.00
2022-10-31T08:32:46.684Z,100.00
2022-10-31T08:35:14.226Z,100.00
2022-10-31T08:37:41.650Z,100.00
2022-10-31T08:40:11.988Z,100.00
2022-10-31T08:42:39.414Z,100.00
2022-10-31T08:45:07.046Z,100.00
2022-10-31T08:47:34.508Z,100.00
2022-10-31T08:50:01.957Z,100.00
2022-10-31T08:52:58.856Z,100.00
2022-10-31T08:55:18.316Z,100.00
2022-10-31T08:57:45.785Z,100.00
2022-10-31T09:00:13.600Z,100.00
2022-10-31T09:02:41.031Z,99.47
2022-10-31T09:05:08.929Z,100.00
2022-10-31T09:07:36.413Z,100.00
2022-10-31T09:10:03.930Z,98.83
2022-10-31T09:12:32.734Z,99.88
2022-10-31T09:15:01.766Z,94.18
2022-10-31T09:17:30.087Z,100.00
2022-10-31T09:19:58.047Z,90.78
2022-10-31T09:22:25.516Z,90.28
2022-10-31T09:24:52.984Z,93.19
2022-10-31T09:27:20.412Z,89.96
2022-10-31T09:29:49.222Z,87.49
2022-10-31T09:32:16.716Z,86.36
2022-10-31T09:34:44.149Z,86.16
2022-10-31T09:37:11.605Z,85.90
2022-10-31T09:39:41.143Z,85.89
2022-10-31T09:42:19.015Z,84.53
2022-10-31T09:44:50.129Z,81.37
2022-10-31T09:47:19.554Z,80.68
2022-10-31T09:49:56.038Z,86.75
2022-10-31T09:52:25.105Z,87.15
2022-10-31T09:54:53.890Z,86.71
2022-10-31T09:57:22.132Z,87.16
2022-10-31T09:59:50.947Z,86.07
2022-10-31T10:02:19.070Z,84.18
2022-10-31T10:04:46.937Z,84.30
2022-10-31T10:07:16.253Z,80.45
2022-10-31T10:09:43.723Z,79.04
2022-10-31T10:12:12.228Z,78.78
2022-10-31T10:14:46.480Z,77.77
2022-10-31T10:17:18.141Z,80.76
2022-10-31T10:19:52.352Z,79.70
2022-10-31T10:22:21.424Z,81.46
2022-10-31T10:24:56.495Z,82.12
2022-10-31T10:27:25.824Z,76.88
2022-10-31T10:29:54.853Z,76.38
2022-10-31T10:32:24.548Z,77.85
2022-10-31T10:34:53.012Z,77.91
2022-10-31T10:37:24.098Z,77.78
2022-10-31T10:39:52.368Z,76.40
2022-10-31T10:42:37.487Z,75.42
2022-10-31T10:45:26.383Z,70.35
2022-10-31T10:47:58.134Z,69.95
2022-10-31T10:50:26.854Z,73.78
2022-10-31T10:53:00.132Z,69.90
2022-10-31T10:55:30.212Z,67.04
2022-10-31T10:57:58.617Z,69.96
2022-10-31T11:00:27.043Z,75.40
2022-10-31T11:02:56.551Z,79.26
2022-10-31T11:05:31.980Z,73.86
2022-10-31T11:07:59.708Z,76.12
2022-10-31T11:10:27.860Z,76.59
2022-10-31T11:13:06.095Z,75.21
2022-10-31T11:15:37.649Z,76.26
2022-10-31T11:18:07.028Z,75.87
2022-10-31T11:20:36.740Z,77.10
2022-10-31T11:23:07.842Z,79.44
2022-10-31T11:25:35.740Z,75.30
2022-10-31T11:28:05.049Z,75.09
2022-10-31T11:30:37.794Z,77.63
2022-10-31T11:33:06.841Z,77.21
2022-10-31T11:35:34.734Z,73.97
2022-10-31T11:38:03.323Z,73.09
2022-10-31T11:40:31.384Z,73.91
2022-10-31T11:43:00.693Z,74.79
2022-10-31T11:45:32.037Z,69.13
2022-10-31T11:48:01.949Z,72.28
2022-10-31T11:50:35.108Z,69.33
2022-10-31T11:53:03.845Z,70.59
2022-10-31T11:55:34.215Z,68.42
2022-10-31T11:58:02.224Z,69.17
2022-10-31T12:00:32.380Z,66.85
2022-10-31T12:03:08.795Z,68.16
2022-10-31T12:05:39.068Z,67.84
2022-10-31T12:08:08.371Z,66.85
2022-10-31T12:10:42.991Z,67.24
2022-10-31T12:13:21.123Z,67.45
2022-10-31T12:15:54.943Z,68.97
2022-10-31T12:18:44.424Z,69.86
2022-10-31T12:21:21.895Z,67.13
2022-10-31T12:23:57.961Z,66.19
2022-10-31T12:26:31.257Z,64.69
2022-10-31T12:29:11.920Z,65.72
2022-10-31T12:31:48.952Z,63.55
2022-10-31T12:34:47.727Z,65.00
2022-10-31T12:37:26.156Z,65.22
2022-10-31T12:40:02.255Z,64.37
2022-10-31T12:42:42.323Z,68.34
2022-10-31T12:45:33.107Z,71.19
2022-10-31T12:48:16.028Z,69.85
2022-10-31T12:50:54.312Z,67.70
2022-10-31T12:53:33.377Z,68.15
2022-10-31T12:56:12.251Z,67.58
2022-10-31T12:58:44.251Z,68.28
2022-10-31T13:01:16.884Z,66.75
2022-10-31T13:03:49.030Z,66.72
2022-10-31T13:06:21.283Z,70.05
2022-10-31T13:08:54.286Z,68.29
2022-10-31T13:11:24.378Z,67.28
2022-10-31T13:13:57.620Z,68.26
2022-10-31T13:16:28.057Z,66.08
2022-10-31T13:19:01.183Z,66.83
2022-10-31T13:21:39.541Z,66.43
2022-10-31T13:24:13.688Z,69.33
2022-10-31T13:26:47.168Z,69.75
2022-10-31T13:29:20.631Z,68.85
2022-10-31T13:31:48.408Z,69.08
2022-10-31T13:34:26.964Z,72.34
2022-10-31T13:37:00.532Z,71.25
2022-10-31T13:39:36.963Z,71.82
2022-10-31T13:42:10.571Z,72.22
2022-10-31T13:44:39.471Z,70.35
2022-10-31T13:47:23.198Z,69.79
2022-10-31T13:49:51.605Z,71.01
2022-10-31T13:52:26.268Z,75.46
2022-10-31T13:54:57.744Z,73.20
2022-10-31T13:57:34.411Z,71.76
2022-10-31T14:00:04.961Z,73.10
2022-10-31T14:02:33.853Z,75.59
2022-10-31T14:05:03.181Z,74.29
2022-10-31T14:07:33.932Z,75.20
2022-10-31T14:10:04.720Z,74.49
2022-10-31T14:12:35.061Z,73.86
2022-10-31T14:15:06.817Z,77.80
2022-10-31T14:17:41.739Z,75.94
2022-10-31T14:20:32.963Z,76.12
2022-10-31T14:25:36.552Z,76.46
2022-10-31T14:28:19.691Z,76.57
2022-10-31T14:30:54.154Z,77.28
2022-10-31T14:33:22.364Z,77.77
2022-10-31T14:35:55.228Z,79.63
2022-10-31T14:38:31.560Z,78.43
2022-10-31T14:41:13.416Z,77.46
2022-10-31T14:43:54.415Z,80.38
2022-10-31T14:46:32.848Z,82.89
2022-10-31T14:49:22.615Z,79.10
2022-10-31T14:51:51.059Z,80.33
2022-10-31T14:54:22.172Z,83.64
2022-10-31T14:56:54.639Z,81.14
2022-10-31T14:59:26.673Z,81.63
2022-10-31T15:01:58.774Z,84.56
2022-10-31T15:04:28.299Z,83.30
2022-10-31T15:07:00.330Z,83.82
2022-10-31T15:09:30.856Z,84.78
2022-10-31T15:12:01.506Z,82.12
2022-10-31T15:14:30.857Z,81.92
2022-10-31T15:16:59.766Z,84.33
2022-10-31T15:19:28.560Z,82.22
2022-10-31T15:21:57.982Z,81.93
2022-10-31T15:24:26.926Z,85.09
2022-10-31T15:26:56.914Z,85.21
2022-10-31T15:29:28.187Z,82.95
2022-10-31T15:31:57.297Z,83.85
2022-10-31T15:34:28.727Z,84.93
2022-10-31T15:36:56.395Z,89.32
2022-10-31T15:39:24.117Z,89.94
2022-10-31T15:41:54.984Z,91.11
2022-10-31T15:44:26.923Z,90.89
2022-10-31T15:46:56.717Z,85.78
2022-10-31T15:49:37.127Z,86.29
2022-10-31T15:52:07.313Z,89.98
2022-10-31T15:54:35.170Z,92.28
2022-10-31T15:57:02.847Z,89.39
2022-10-31T15:59:32.126Z,92.36
2022-10-31T16:02:03.141Z,91.29
2022-10-31T16:04:31.588Z,93.81
2022-10-31T16:07:01.764Z,91.83
2022-10-31T16:09:29.634Z,92.32
2022-10-31T16:11:58.736Z,97.52
2022-10-31T16:14:28.424Z,100.00
2022-10-31T16:16:59.189Z,94.26
2022-10-31T16:19:30.228Z,97.54
2022-10-31T16:22:06.408Z,94.24
2022-10-31T16:24:35.605Z,100.00
2022-10-31T16:27:06.091Z,99.71
2022-10-31T16:29:40.417Z,100.00
2022-10-31T16:32:34.860Z,100.00
2022-10-31T16:35:19.384Z,100.00
2022-10-31T16:37:47.071Z,100.00
2022-10-31T16:40:15.860Z,98.35
2022-10-31T16:42:44.017Z,100.00
2022-10-31T16:45:17.265Z,100.00
2022-10-31T16:47:46.327Z,98.90
2022-10-31T16:50:16.031Z,100.00
2022-10-31T16:53:08.286Z,97.27
2022-10-31T16:55:35.868Z,97.53
2022-10-31T16:58:04.083Z,100.00
2022-10-31T17:00:31.827Z,98.13
2022-10-31T17:03:01.227Z,100.00
2022-10-31T17:05:30.374Z,99.42
2022-10-31T17:07:58.466Z,100.00
2022-10-31T17:10:26.874Z,100.00
2022-10-31T17:12:54.904Z,98.40
2022-10-31T17:15:25.255Z,100.00
2022-10-31T17:17:53.245Z,100.00
2022-10-31T17:20:24.136Z,98.97
2022-10-31T17:22:52.144Z,96.08
2022-10-31T17:25:22.603Z,94.92
2022-10-31T17:27:50.550Z,92.92
2022-10-31T17:30:19.529Z,100.00
2022-10-31T17:32:47.844Z,96.91
2022-10-31T17:35:16.344Z,95.84
2022-10-31T17:37:46.104Z,100.00
2022-10-31T17:40:15.292Z,96.89
2022-10-31T17:42:43.077Z,98.94
2022-10-31T17:45:13.245Z,100.00
2022-10-31T17:47:40.874Z,98.60
2022-10-31T17:50:09.483Z,95.97
2022-10-31T17:52:37.130Z,93.64
2022-10-31T17:55:06.888Z,100.00
2022-10-31T17:57:35.635Z,100.00
2022-10-31T18:00:03.713Z,100.00
2022-10-31T18:02:31.455Z,94.70
2022-10-31T18:04:59.203Z,100.00
2022-10-31T18:07:27.570Z,98.01
2022-10-31T18:09:55.300Z,100.00
2022-10-31T18:12:24.798Z,100.00
2022-10-31T18:14:52.538Z,100.00
2022-10-31T18:17:20.636Z,100.00
2022-10-31T18:19:48.389Z,99.41
2022-10-31T18:22:16.416Z,98.68
2022-10-31T18:24:44.089Z,100.00
2022-10-31T18:27:11.712Z,100.00
2022-10-31T18:29:40.727Z,100.00
2022-10-31T18:32:09.782Z,100.00
2022-10-31T18:34:37.723Z,98.99
2022-10-31T18:37:05.588Z,98.02
2022-10-31T18:39:33.258Z,100.00
2022-10-31T18:42:00.937Z,100.00
2022-10-31T18:44:28.619Z,95.68
2022-10-31T18:46:57.616Z,100.00
2022-10-31T18:49:25.971Z,100.00
2022-10-31T18:51:53.763Z,100.00
2022-10-31T18:54:21.429Z,98.17
2022-10-31T18:56:49.338Z,98.93
2022-10-31T18:59:17.009Z,99.47
2022-10-31T19:01:44.769Z,99.92
2022-10-31T19:04:13.884Z,100.00
2022-10-31T19:06:41.570Z,100.00
2022-10-31T19:09:10.337Z,100.00
2022-10-31T19:11:38.654Z,99.39
2022-10-31T19:14:08.277Z,100.00
2022-10-31T19:16:36.491Z,97.78
2022-10-31T19:19:04.402Z,96.89
2022-10-31T19:21:33.525Z,99.76
2022-10-31T19:24:01.649Z,99.97
2022-10-31T19:26:29.703Z,96.91
2022-10-31T19:28:57.722Z,93.56
2022-10-31T19:31:25.536Z,97.61
2022-10-31T19:33:53.180Z,100.00
2022-10-31T19:36:21.400Z,100.00
2022-10-31T19:38:52.210Z,100.00
2022-10-31T19:41:22.745Z,100.00
2022-10-31T19:43:51.187Z,100.00
2022-10-31T19:46:27.735Z,96.75
2022-10-31T19:49:02.049Z,100.00
2022-10-31T19:51:29.795Z,98.85
2022-10-31T19:53:58.809Z,100.00
2022-10-31T19:56:26.681Z,100.00
2022-10-31T19:58:54.525Z,100.00
2022-10-31T20:01:24.660Z,100.00
2022-10-31T20:03:52.954Z,99.78
2022-10-31T20:06:23.494Z,100.00
2022-10-31T20:08:52.369Z,100.00
2022-10-31T20:11:21.401Z,100.00
2022-10-31T20:13:49.183Z,100.00
2022-10-31T20:16:17.508Z,100.00
2022-10-31T20:18:45.365Z,98.87
2022-10-31T20:21:15.838Z,100.00
2022-10-31T20:23:43.895Z,99.79
2022-10-31T20:26:13.662Z,100.00
2022-10-31T20:28:43.660Z,100.00
2022-10-31T20:31:12.848Z,100.00
2022-10-31T20:33:40.511Z,100.00
2022-10-31T20:36:09.684Z,99.80
2022-10-31T20:38:38.812Z,100.00
2022-10-31T20:41:08.348Z,98.99
2022-10-31T20:43:36.403Z,97.35
2022-10-31T20:46:07.183Z,100.00
2022-10-31T20:50:09.438Z,96.68
2022-10-31T20:52:37.373Z,95.32
2022-10-31T20:55:05.045Z,98.16
2022-10-31T20:57:32.519Z,98.30
2022-10-31T21:00:00.049Z,97.62
2022-10-31T21:02:27.601Z,99.90
2022-10-31T21:04:55.154Z,96.97
2022-10-31T21:07:23.979Z,94.85
2022-10-31T21:09:51.435Z,97.04
2022-10-31T21:12:18.882Z,95.36
2022-10-31T21:14:46.348Z,93.45
2022-10-31T21:17:13.787Z,95.12
2022-10-31T21:19:41.264Z,95.86
2022-10-31T21:22:08.848Z,94.49
2022-10-31T21:24:37.695Z,94.07
2022-10-31T21:27:08.508Z,92.48
2022-10-31T21:29:39.398Z,94.29
2022-10-31T21:32:06.988Z,91.38
2022-10-31T21:34:34.438Z,92.20
2022-10-31T21:37:01.892Z,93.40
2022-10-31T21:39:29.412Z,94.47
2022-10-31T21:41:58.216Z,93.73
2022-10-31T21:44:25.696Z,92.34
2022-10-31T21:46:53.135Z,91.91
2022-10-31T21:49:20.654Z,89.24
2022-10-31T21:51:48.099Z,89.33
2022-10-31T21:54:33.188Z,89.79
2022-10-31T21:57:03.241Z,87.74
2022-10-31T21:59:33.164Z,89.37
2022-10-31T22:02:03.919Z,88.43
2022-10-31T22:04:31.428Z,90.57
2022-10-31T22:06:58.874Z,87.39
2022-10-31T22:09:26.402Z,86.65
2022-10-31T22:11:53.844Z,87.32
2022-10-31T22:14:22.647Z,86.55
2022-10-31T22:16:50.108Z,86.03
2022-10-31T22:19:17.560Z,87.81
2022-10-31T22:21:46.348Z,89.15
2022-10-31T22:24:14.066Z,87.55
2022-10-31T22:26:41.648Z,86.82
2022-10-31T22:29:11.248Z,85.42
2022-10-31T22:31:40.683Z,85.05
2022-10-31T22:34:08.171Z,85.44
2022-10-31T22:36:35.878Z,84.49
2022-10-31T22:39:03.361Z,85.56
2022-10-31T22:41:31.562Z,84.30
2022-10-31T22:43:59.352Z,84.88
2022-10-31T22:46:27.774Z,83.00
2022-10-31T22:48:56.997Z,83.75
2022-10-31T22:51:25.252Z,83.97
2022-10-31T22:53:52.772Z,83.04
2022-10-31T22:56:21.248Z,82.49
2022-10-31T22:58:48.787Z,83.40
2022-10-31T23:01:16.911Z,82.84
2022-10-31T23:03:44.612Z,86.30
2022-10-31T23:06:13.886Z,84.89
2022-10-31T23:08:41.434Z,84.99
2022-10-31T23:11:15.798Z,83.62
2022-10-31T23:14:00.700Z,83.65
2022-10-31T23:16:28.160Z,82.41
2022-10-31T23:18:55.642Z,82.96
2022-10-31T23:21:53.698Z,83.26
2022-10-31T23:24:21.947Z,83.40
2022-10-31T23:27:07.491Z,84.49
2022-10-31T23:29:35.207Z,82.95
2022-10-31T23:32:02.828Z,82.50
2022-10-31T23:34:30.650Z,83.76
2022-10-31T23:36:59.507Z,82.40
2022-10-31T23:39:27.014Z,83.04
2022-10-31T23:41:54.461Z,82.61
2022-10-31T23:44:21.967Z,82.77
2022-10-31T23:46:49.453Z,82.95
2022-10-31T23:49:17.459Z,84.14
2022-10-31T23:51:44.931Z,81.05
2022-10-31T23:54:13.763Z,81.33
2022-10-31T23:56:41.244Z,81.90
2022-10-31T23:59:08.871Z,80.45
